createdAt,value
2022-12-06T00:01:42.036Z,19.91
2022-12-06T00:04:13.004Z,19.92
2022-12-06T00:06:46.857Z,19.92
2022-12-06T00:09:20.787Z,19.92
2022-12-06T00:11:49.443Z,19.92
2022-12-06T00:14:18.043Z,19.91
2022-12-06T00:16:46.382Z,19.91
2022-12-06T00:19:19.606Z,19.91
2022-12-06T00:21:49.631Z,19.91
2022-12-06T00:24:24.889Z,19.91
2022-12-06T00:26:53.977Z,19.91
2022-12-06T00:29:24.273Z,19.91
2022-12-06T00:31:53.907Z,19.91
2022-12-06T00:34:21.799Z,19.91
2022-12-06T00:36:49.896Z,19.91
2022-12-06T00:39:18.707Z,19.90
2022-12-06T00:41:46.752Z,19.91
2022-12-06T00:44:14.565Z,19.91
2022-12-06T00:46:42.499Z,19.91
2022-12-06T00:49:10.682Z,19.90
2022-12-06T00:51:39.505Z,19.90
2022-12-06T00:54:08.027Z,19.90
2022-12-06T00:56:37.629Z,19.90
2022-12-06T00:59:07.753Z,19.90
2022-12-06T01:01:36.674Z,19.90
2022-12-06T01:04:07.339Z,19.89
2022-12-06T01:06:36.639Z,19.90
2022-12-06T01:09:09.698Z,19.90
2022-12-06T01:11:38.463Z,19.89
2022-12-06T01:14:06.776Z,19.90
2022-12-06T01:16:35.412Z,19.91
2022-12-06T01:19:05.114Z,19.91
2022-12-06T01:21:32.295Z,19.91
2022-12-06T01:23:59.687Z,19.91
2022-12-06T01:26:32.143Z,19.92
2022-12-06T01:29:00.175Z,19.92
2022-12-06T01:31:35.380Z,19.92
2022-12-06T01:34:06.267Z,19.91
2022-12-06T01:36:33.368Z,19.91
2022-12-06T01:39:01.943Z,19.91
2022-12-06T01:41:32.326Z,19.90
2022-12-06T01:43:59.415Z,19.91
2022-12-06T01:46:45.537Z,19.91
2022-12-06T01:49:12.524Z,19.92
2022-12-06T01:51:51.269Z,19.91
2022-12-06T01:54:21.152Z,19.92
2022-12-06T01:56:50.127Z,19.91
2022-12-06T01:59:17.659Z,19.91
2022-12-06T02:01:46.700Z,19.91
2022-12-06T02:04:15.271Z,19.91
2022-12-06T02:06:42.536Z,19.91
2022-12-06T02:09:11.502Z,19.91
2022-12-06T02:11:39.546Z,19.91
2022-12-06T02:14:15.623Z,19.92
2022-12-06T02:16:57.981Z,19.91
2022-12-06T02:19:27.817Z,19.91
2022-12-06T02:22:02.654Z,19.91
2022-12-06T02:24:49.864Z,19.91
2022-12-06T02:27:37.981Z,19.92
2022-12-06T02:30:09.681Z,19.91
2022-12-06T02:32:56.876Z,19.91
2022-12-06T02:35:39.281Z,19.91
2022-12-06T02:38:21.342Z,19.90
2022-12-06T02:40:59.385Z,19.90
2022-12-06T02:43:33.168Z,19.91
2022-12-06T02:46:03.516Z,19.90
2022-12-06T02:48:33.957Z,19.90
2022-12-06T02:51:09.775Z,19.90
2022-12-06T02:53:40.591Z,19.90
2022-12-06T02:56:08.532Z,19.90
2022-12-06T02:58:37.359Z,19.91
2022-12-06T03:01:17.010Z,19.91
2022-12-06T03:04:33.256Z,19.91
2022-12-06T03:07:13.513Z,19.91
2022-12-06T03:10:19.759Z,19.91
2022-12-06T03:13:01.879Z,19.90
2022-12-06T03:15:53.140Z,19.91
2022-12-06T03:18:32.092Z,19.90
2022-12-06T03:21:07.931Z,19.90
2022-12-06T03:23:40.150Z,19.90
2022-12-06T03:26:10.898Z,19.91
2022-12-06T03:28:40.186Z,19.91
2022-12-06T03:31:11.891Z,19.90
2022-12-06T03:33:53.969Z,19.90
2022-12-06T03:36:22.057Z,19.90
2022-12-06T03:38:52.050Z,19.91
2022-12-06T03:41:22.374Z,19.91
2022-12-06T03:43:49.483Z,19.91
2022-12-06T03:46:21.462Z,19.91
2022-12-06T03:49:01.045Z,19.91
2022-12-06T03:51:31.440Z,19.92
2022-12-06T03:54:00.961Z,19.91
2022-12-06T03:56:29.577Z,19.92
2022-12-06T03:58:56.607Z,19.91
2022-12-06T04:01:23.780Z,19.91
2022-12-06T04:03:51.161Z,19.91
2022-12-06T04:06:18.318Z,19.91
2022-12-06T04:08:45.486Z,19.91
2022-12-06T04:11:12.711Z,19.90
2022-12-06T04:13:41.061Z,19.90
2022-12-06T04:16:35.353Z,19.90
2022-12-06T04:19:02.397Z,19.91
2022-12-06T04:21:32.258Z,19.91
2022-12-06T04:24:00.362Z,19.91
2022-12-06T04:26:27.398Z,19.91
2022-12-06T04:29:13.563Z,19.91
2022-12-06T04:31:59.909Z,19.91
2022-12-06T04:34:45.671Z,19.91
2022-12-06T04:37:31.038Z,19.90
2022-12-06T04:39:58.642Z,19.90
2022-12-06T04:42:44.600Z,19.90
2022-12-06T04:45:11.913Z,19.89
2022-12-06T04:47:38.871Z,19.89
2022-12-06T04:50:06.788Z,19.88
2022-12-06T04:52:35.953Z,19.89
2022-12-06T04:55:05.505Z,19.88
2022-12-06T04:57:32.660Z,19.88
2022-12-06T05:00:00.012Z,19.88
2022-12-06T05:02:27.544Z,19.89
2022-12-06T05:04:54.695Z,19.88
2022-12-06T05:07:21.740Z,19.88
2022-12-06T05:09:48.956Z,19.89
2022-12-06T05:12:16.129Z,19.90
2022-12-06T05:14:43.282Z,19.90
2022-12-06T05:17:10.310Z,19.90
2022-12-06T05:19:37.344Z,19.90
2022-12-06T05:22:04.397Z,19.90
2022-12-06T05:24:31.585Z,19.90
2022-12-06T05:26:58.687Z,19.90
2022-12-06T05:29:25.826Z,19.90
2022-12-06T05:31:53.061Z,19.90
2022-12-06T05:34:20.110Z,19.90
2022-12-06T05:36:47.282Z,19.90
2022-12-06T05:39:14.277Z,19.90
2022-12-06T05:41:41.382Z,19.90
2022-12-06T05:44:12.378Z,19.91
2022-12-06T05:46:39.661Z,19.90
2022-12-06T05:49:07.196Z,19.90
2022-12-06T05:51:34.228Z,19.90
2022-12-06T05:54:03.819Z,19.89
2022-12-06T05:56:31.989Z,19.89
2022-12-06T05:58:59.167Z,19.90
2022-12-06T06:01:26.185Z,19.90
2022-12-06T06:03:53.264Z,19.90
2022-12-06T06:06:21.603Z,19.89
2022-12-06T06:08:48.741Z,19.89
2022-12-06T06:11:16.142Z,19.89
2022-12-06T06:13:43.270Z,19.89
2022-12-06T06:16:10.617Z,19.89
2022-12-06T06:18:37.776Z,19.90
2022-12-06T06:21:04.997Z,19.90
2022-12-06T06:23:32.633Z,19.90
2022-12-06T06:25:59.812Z,19.90
2022-12-06T06:28:26.892Z,19.89
2022-12-06T06:30:54.051Z,19.90
2022-12-06T06:33:21.491Z,19.90
2022-12-06T06:35:49.583Z,19.89
2022-12-06T06:38:16.540Z,19.89
2022-12-06T06:40:43.670Z,19.89
2022-12-06T06:43:20.774Z,19.89
2022-12-06T06:45:56.015Z,19.89
2022-12-06T06:48:24.380Z,19.90
2022-12-06T06:50:56.933Z,19.89
2022-12-06T06:53:28.043Z,19.89
2022-12-06T06:55:55.831Z,19.89
2022-12-06T06:58:23.662Z,19.90
2022-12-06T07:00:56.837Z,19.90
2022-12-06T07:03:25.118Z,19.92
2022-12-06T07:06:03.744Z,19.93
2022-12-06T07:08:31.954Z,19.92
2022-12-06T07:10:59.663Z,19.91
2022-12-06T07:13:28.569Z,19.89
2022-12-06T07:15:57.317Z,19.88
2022-12-06T07:18:25.852Z,19.88
2022-12-06T07:21:05.047Z,19.88
2022-12-06T07:23:36.095Z,19.88
2022-12-06T07:26:08.573Z,19.88
2022-12-06T07:28:37.152Z,19.88
2022-12-06T07:31:24.030Z,19.88
2022-12-06T07:33:57.818Z,19.88
2022-12-06T07:36:26.509Z,19.88
2022-12-06T07:38:55.783Z,19.88
2022-12-06T07:41:44.180Z,19.88
2022-12-06T07:44:36.758Z,19.88
2022-12-06T07:47:03.987Z,19.89
2022-12-06T07:49:31.520Z,19.89
2022-12-06T07:51:58.645Z,19.89
2022-12-06T07:54:25.929Z,19.89
2022-12-06T07:56:53.467Z,19.89
2022-12-06T07:59:20.602Z,19.90
2022-12-06T08:01:47.912Z,19.90
2022-12-06T08:04:15.259Z,19.90
2022-12-06T08:06:42.354Z,19.90
2022-12-06T08:09:09.470Z,19.90
2022-12-06T08:11:37.201Z,19.90
2022-12-06T08:14:04.952Z,19.90
2022-12-06T08:16:34.907Z,19.90
2022-12-06T08:19:12.990Z,19.90
2022-12-06T08:21:40.174Z,19.89
2022-12-06T08:24:07.684Z,19.90
2022-12-06T08:26:36.531Z,19.89
2022-12-06T08:29:04.336Z,19.89
2022-12-06T08:31:31.983Z,19.90
2022-12-06T08:33:59.168Z,19.90
2022-12-06T08:36:26.374Z,19.90
2022-12-06T08:38:53.715Z,19.90
2022-12-06T08:41:40.892Z,19.89
2022-12-06T08:44:12.341Z,19.90
2022-12-06T08:46:40.324Z,19.90
2022-12-06T08:49:09.456Z,19.90
2022-12-06T08:51:38.359Z,19.91
2022-12-06T08:54:07.858Z,19.91
2022-12-06T08:56:36.882Z,19.91
2022-12-06T08:59:04.076Z,19.90
2022-12-06T09:01:37.732Z,19.91
2022-12-06T09:04:07.989Z,19.90
2022-12-06T09:06:38.158Z,19.89
2022-12-06T09:09:06.167Z,19.89
2022-12-06T09:11:33.316Z,19.90
2022-12-06T09:14:00.463Z,19.90
2022-12-06T09:16:28.041Z,19.91
2022-12-06T09:18:55.119Z,19.91
2022-12-06T09:21:25.000Z,19.92
2022-12-06T09:23:56.037Z,19.91
2022-12-06T09:26:23.309Z,19.92
2022-12-06T09:28:51.053Z,19.92
2022-12-06T09:31:20.454Z,19.92
2022-12-06T09:33:48.918Z,19.92
2022-12-06T09:36:25.619Z,19.93
2022-12-06T09:39:32.899Z,19.93
2022-12-06T09:42:25.861Z,19.92
2022-12-06T09:44:55.885Z,19.93
2022-12-06T09:47:34.854Z,19.93
2022-12-06T09:50:09.008Z,19.93
2022-12-06T09:52:57.317Z,19.93
2022-12-06T09:55:39.659Z,19.94
2022-12-06T09:58:28.322Z,19.94
2022-12-06T10:01:04.930Z,19.94
2022-12-06T10:04:10.439Z,19.94
2022-12-06T10:07:06.491Z,19.95
2022-12-06T10:10:15.155Z,19.95
2022-12-06T10:13:14.594Z,19.94
2022-12-06T10:15:53.348Z,19.94
2022-12-06T10:18:45.860Z,19.95
2022-12-06T10:21:15.952Z,19.94
2022-12-06T10:24:01.435Z,19.95
2022-12-06T10:26:53.931Z,19.95
2022-12-06T10:29:33.117Z,19.94
2022-12-06T10:32:24.080Z,19.95
2022-12-06T10:34:58.556Z,19.95
2022-12-06T10:37:56.459Z,19.95
2022-12-06T10:40:46.550Z,19.95
2022-12-06T10:47:04.966Z,19.95
2022-12-06T10:49:49.180Z,19.97
2022-12-06T10:52:31.545Z,19.97
2022-12-06T10:55:11.687Z,19.97
2022-12-06T10:57:58.037Z,19.98
2022-12-06T11:00:28.531Z,19.97
2022-12-06T11:03:04.077Z,19.97
2022-12-06T11:05:35.236Z,19.97
2022-12-06T11:08:12.057Z,19.97
2022-12-06T11:10:40.319Z,19.98
2022-12-06T11:13:25.161Z,19.98
2022-12-06T11:16:04.997Z,19.98
2022-12-06T11:18:33.105Z,19.98
2022-12-06T11:21:27.806Z,19.98
2022-12-06T11:24:21.198Z,19.98
2022-12-06T11:27:00.147Z,19.98
2022-12-06T11:29:27.847Z,19.98
2022-12-06T11:32:02.117Z,19.99
2022-12-06T11:34:39.869Z,19.99
2022-12-06T11:37:12.518Z,19.99
2022-12-06T11:39:40.124Z,19.99
2022-12-06T11:42:08.923Z,20.00
2022-12-06T11:44:53.687Z,19.99
2022-12-06T11:47:22.988Z,19.99
2022-12-06T11:49:54.622Z,19.99
2022-12-06T11:52:38.910Z,19.99
2022-12-06T11:55:38.205Z,19.99
2022-12-06T11:58:34.420Z,19.98
2022-12-06T12:01:14.905Z,19.99
2022-12-06T12:03:45.076Z,19.99
2022-12-06T12:09:26.323Z,19.99
2022-12-06T12:12:18.014Z,19.99
2022-12-06T12:14:51.471Z,19.98
2022-12-06T12:17:23.155Z,19.99
2022-12-06T12:19:57.370Z,20.00
2022-12-06T12:22:43.302Z,20.00
2022-12-06T12:25:29.517Z,20.00
2022-12-06T12:28:01.871Z,20.00
2022-12-06T12:30:37.032Z,20.00
2022-12-06T12:33:07.540Z,20.00
2022-12-06T12:35:40.864Z,20.00
2022-12-06T12:38:11.154Z,19.99
2022-12-06T12:40:41.270Z,20.00
2022-12-06T12:43:33.915Z,20.00
2022-12-06T12:46:10.469Z,20.00
2022-12-06T12:48:41.247Z,20.00
2022-12-06T12:51:33.206Z,20.00
2022-12-06T12:54:20.913Z,20.00
2022-12-06T12:56:49.178Z,20.00
2022-12-06T12:59:19.892Z,20.00
2022-12-06T13:02:15.284Z,20.00
2022-12-06T13:04:43.022Z,20.00
2022-12-06T13:07:27.990Z,20.00
2022-12-06T13:10:03.331Z,20.00
2022-12-06T13:12:40.973Z,20.00
2022-12-06T13:15:50.713Z,20.00
2022-12-06T13:18:43.137Z,19.99
2022-12-06T13:21:17.941Z,20.00
2022-12-06T13:23:48.441Z,20.00
2022-12-06T13:26:34.189Z,20.01
2022-12-06T13:29:11.753Z,20.01
2022-12-06T13:31:41.284Z,20.02
2022-12-06T13:34:28.465Z,20.02
2022-12-06T13:36:56.973Z,20.01
2022-12-06T13:39:30.307Z,20.01
2022-12-06T13:42:19.880Z,20.02
2022-12-06T13:45:01.262Z,20.02
2022-12-06T13:47:28.379Z,20.02
2022-12-06T13:50:20.640Z,20.02
2022-12-06T13:52:47.860Z,20.04
2022-12-06T13:55:25.209Z,20.04
2022-12-06T13:58:12.353Z,20.03
2022-12-06T14:00:42.654Z,20.03
2022-12-06T14:03:21.961Z,20.03
2022-12-06T14:06:15.706Z,20.03
2022-12-06T14:08:53.732Z,20.03
2022-12-06T14:11:27.535Z,20.04
2022-12-06T14:14:00.458Z,20.04
2022-12-06T14:16:39.440Z,20.04
2022-12-06T14:19:19.867Z,20.04
2022-12-06T14:22:16.118Z,20.04
2022-12-06T14:24:56.663Z,20.03
2022-12-06T14:27:26.353Z,20.02
2022-12-06T14:30:25.915Z,20.02
2022-12-06T14:32:56.261Z,20.02
2022-12-06T14:35:24.849Z,20.02
2022-12-06T14:37:52.587Z,20.02
2022-12-06T14:43:18.079Z,20.02
2022-12-06T14:45:46.710Z,20.02
2022-12-06T14:48:15.553Z,20.03
2022-12-06T14:50:44.369Z,20.02
2022-12-06T14:53:28.197Z,20.02
2022-12-06T14:56:03.507Z,20.01
2022-12-06T14:58:37.588Z,20.01
2022-12-06T15:01:17.166Z,20.01
2022-12-06T15:04:01.100Z,20.02
2022-12-06T15:06:31.261Z,20.01
2022-12-06T15:08:58.410Z,20.00
2022-12-06T15:12:07.140Z,20.01
2022-12-06T15:14:40.363Z,20.01
2022-12-06T15:17:10.408Z,20.02
2022-12-06T15:19:52.867Z,20.03
2022-12-06T15:22:29.072Z,20.02
2022-12-06T15:25:00.231Z,20.03
2022-12-06T15:27:28.200Z,20.03
2022-12-06T15:29:55.532Z,20.02
2022-12-06T15:32:25.808Z,20.03
2022-12-06T15:34:53.336Z,20.03
2022-12-06T15:37:39.706Z,20.04
2022-12-06T15:40:08.882Z,20.04
2022-12-06T15:42:36.331Z,20.04
2022-12-06T15:45:05.053Z,20.05
2022-12-06T15:47:33.860Z,20.05
2022-12-06T15:50:04.012Z,20.04
2022-12-06T15:52:31.429Z,20.03
2022-12-06T15:54:59.136Z,20.02
2022-12-06T15:57:27.103Z,20.02
2022-12-06T15:59:54.312Z,20.02
2022-12-06T16:02:21.732Z,20.03
2022-12-06T16:04:51.503Z,20.02
2022-12-06T16:07:19.381Z,20.02
2022-12-06T16:09:47.694Z,20.02
2022-12-06T16:12:15.172Z,20.03
2022-12-06T16:14:45.047Z,20.04
2022-12-06T16:17:12.304Z,20.04
2022-12-06T16:19:58.432Z,20.04
2022-12-06T16:22:47.168Z,20.05
2022-12-06T16:25:14.461Z,20.04
2022-12-06T16:27:41.605Z,20.04
2022-12-06T16:30:10.646Z,20.04
2022-12-06T16:32:37.926Z,20.03
2022-12-06T16:35:05.556Z,20.04
2022-12-06T16:37:32.783Z,20.03
2022-12-06T16:39:59.997Z,20.02
2022-12-06T16:42:27.263Z,20.02
2022-12-06T16:44:54.440Z,20.02
2022-12-06T16:49:49.169Z,20.02
2022-12-06T16:52:17.199Z,20.02
2022-12-06T16:54:44.840Z,20.03
2022-12-06T16:57:13.851Z,20.03
2022-12-06T16:59:42.982Z,20.03
2022-12-06T17:02:33.928Z,20.03
2022-12-06T17:05:06.951Z,20.04
2022-12-06T17:07:35.695Z,20.03
2022-12-06T17:10:05.045Z,20.03
2022-12-06T17:12:32.221Z,20.02
2022-12-06T17:15:00.410Z,20.02
2022-12-06T17:17:29.667Z,20.03
2022-12-06T17:20:03.372Z,20.02
2022-12-06T17:22:45.536Z,20.03
2022-12-06T17:25:13.938Z,20.02
2022-12-06T17:27:41.285Z,20.03
2022-12-06T17:30:14.149Z,20.02
2022-12-06T17:32:41.344Z,20.03
2022-12-06T17:35:09.543Z,20.03
2022-12-06T17:37:37.469Z,20.03
2022-12-06T17:40:07.774Z,20.03
2022-12-06T17:42:53.927Z,20.03
2022-12-06T17:45:24.790Z,20.03
2022-12-06T17:47:55.576Z,20.03
2022-12-06T17:50:23.834Z,20.03
2022-12-06T17:52:51.052Z,20.03
2022-12-06T17:55:19.233Z,20.02
2022-12-06T17:57:46.902Z,20.03
2022-12-06T18:00:15.164Z,20.03
2022-12-06T18:02:42.769Z,20.03
2022-12-06T18:05:11.421Z,20.03
2022-12-06T18:07:39.211Z,20.02
2022-12-06T18:10:07.382Z,20.02
2022-12-06T18:12:35.244Z,20.02
2022-12-06T18:15:02.664Z,20.03
2022-12-06T18:17:31.326Z,20.03
2022-12-06T18:20:00.589Z,20.04
2022-12-06T18:22:27.920Z,20.05
2022-12-06T18:24:55.376Z,20.04
2022-12-06T18:27:23.137Z,20.04
2022-12-06T18:29:54.139Z,20.03
2022-12-06T18:32:21.316Z,20.04
2022-12-06T18:34:50.038Z,20.05
2022-12-06T18:37:18.542Z,20.05
2022-12-06T18:39:45.655Z,20.04
2022-12-06T18:42:14.948Z,20.04
2022-12-06T18:44:43.103Z,20.04
2022-12-06T18:47:10.497Z,20.04
2022-12-06T18:49:37.975Z,20.05
2022-12-06T18:52:06.556Z,20.05
2022-12-06T18:54:33.817Z,20.04
2022-12-06T18:57:01.712Z,20.05
2022-12-06T18:59:32.484Z,20.05
2022-12-06T19:01:59.938Z,20.06
2022-12-06T19:04:27.251Z,20.07
2022-12-06T19:06:54.623Z,20.07
2022-12-06T19:09:23.354Z,20.07
2022-12-06T19:11:50.919Z,20.08
2022-12-06T19:14:18.537Z,20.09
2022-12-06T19:16:49.791Z,20.09
2022-12-06T19:19:22.424Z,20.10
2022-12-06T19:21:50.829Z,20.10
2022-12-06T19:24:21.908Z,20.10
2022-12-06T19:26:53.624Z,20.11
2022-12-06T19:29:21.201Z,20.11
2022-12-06T19:31:48.643Z,20.11
2022-12-06T19:34:19.362Z,20.12
2022-12-06T19:36:47.073Z,20.11
2022-12-06T19:39:15.414Z,20.11
2022-12-06T19:42:01.494Z,20.11
2022-12-06T19:44:30.222Z,20.11
2022-12-06T19:46:58.676Z,20.12
2022-12-06T19:49:27.266Z,20.13
2022-12-06T19:51:54.705Z,20.12
2022-12-06T19:54:25.410Z,20.13
2022-12-06T19:56:54.792Z,20.12
2022-12-06T19:59:22.458Z,20.13
2022-12-06T20:01:50.481Z,20.15
2022-12-06T20:04:20.806Z,20.14
2022-12-06T20:06:48.333Z,20.14
2022-12-06T20:09:16.691Z,20.15
2022-12-06T20:12:04.732Z,20.16
2022-12-06T20:14:49.591Z,20.17
2022-12-06T20:17:19.433Z,20.19
2022-12-06T20:19:49.307Z,20.20
2022-12-06T20:22:18.924Z,20.20
2022-12-06T20:24:46.824Z,20.19
2022-12-06T20:27:14.714Z,20.18
2022-12-06T20:29:42.153Z,20.18
2022-12-06T20:32:10.776Z,20.18
2022-12-06T20:34:38.453Z,20.17
2022-12-06T20:37:06.407Z,20.17
2022-12-06T20:39:36.309Z,20.17
2022-12-06T20:42:07.315Z,20.17
2022-12-06T20:44:35.061Z,20.15
2022-12-06T20:47:02.304Z,20.15
2022-12-06T20:49:29.527Z,20.15
2022-12-06T20:51:58.339Z,20.17
2022-12-06T20:54:25.554Z,20.16
2022-12-06T20:56:53.704Z,20.16
2022-12-06T20:59:21.127Z,20.16
2022-12-06T21:01:48.239Z,20.16
2022-12-06T21:04:18.219Z,20.17
2022-12-06T21:06:45.704Z,20.17
2022-12-06T21:09:13.414Z,20.17
2022-12-06T21:11:40.520Z,20.16
2022-12-06T21:14:07.681Z,20.15
2022-12-06T21:16:35.752Z,20.16
2022-12-06T21:19:06.685Z,20.15
2022-12-06T21:21:36.498Z,20.15
2022-12-06T21:24:06.538Z,20.14
2022-12-06T21:26:35.022Z,20.14
2022-12-06T21:29:04.314Z,20.14
2022-12-06T21:31:34.588Z,20.14
2022-12-06T21:34:03.486Z,20.14
2022-12-06T21:36:33.021Z,20.13
2022-12-06T21:39:01.927Z,20.13
2022-12-06T21:41:29.214Z,20.12
2022-12-06T21:43:56.706Z,20.12
2022-12-06T21:46:26.898Z,20.12
2022-12-06T21:48:58.043Z,20.11
2022-12-06T21:51:31.518Z,20.10
2022-12-06T21:53:59.480Z,20.10
2022-12-06T21:56:31.553Z,20.09
2022-12-06T21:59:02.480Z,20.09
2022-12-06T22:01:32.178Z,20.09
2022-12-06T22:04:03.330Z,20.08
2022-12-06T22:06:31.847Z,20.08
2022-12-06T22:09:02.635Z,20.09
2022-12-06T22:11:31.227Z,20.08
2022-12-06T22:14:00.690Z,20.08
2022-12-06T22:16:29.609Z,20.08
2022-12-06T22:18:57.906Z,20.07
2022-12-06T22:21:29.350Z,20.06
2022-12-06T22:24:00.314Z,20.06
2022-12-06T22:26:30.633Z,20.05
2022-12-06T22:28:59.963Z,20.05
2022-12-06T22:31:36.570Z,20.05
2022-12-06T22:34:04.051Z,20.04
2022-12-06T22:36:32.669Z,20.03
2022-12-06T22:39:02.237Z,20.03
2022-12-06T22:41:30.531Z,20.03
2022-12-06T22:44:00.860Z,20.03
2022-12-06T22:46:29.607Z,20.03
2022-12-06T22:48:57.803Z,20.03
2022-12-06T22:51:27.753Z,20.03
2022-12-06T22:54:00.660Z,20.03
2022-12-06T22:56:30.448Z,20.02
2022-12-06T22:58:59.701Z,20.02
2022-12-06T23:01:30.443Z,20.02
2022-12-06T23:04:01.412Z,20.01
2022-12-06T23:06:28.906Z,20.01
2022-12-06T23:08:56.844Z,20.00
2022-12-06T23:11:27.816Z,20.00
2022-12-06T23:13:56.740Z,19.99
2022-12-06T23:16:29.464Z,19.99
2022-12-06T23:18:59.600Z,19.99
2022-12-06T23:21:35.911Z,19.99
2022-12-06T23:24:07.065Z,19.99
2022-12-06T23:26:37.707Z,19.99
2022-12-06T23:29:06.037Z,19.99
2022-12-06T23:31:38.656Z,19.99
2022-12-06T23:34:11.504Z,19.99
2022-12-06T23:36:39.304Z,19.98
2022-12-06T23:39:07.422Z,19.99
2022-12-06T23:41:36.092Z,19.98
2022-12-06T23:44:04.952Z,19.98
2022-12-06T23:46:35.523Z,19.98
2022-12-06T23:49:04.091Z,19.97
2022-12-06T23:51:39.019Z,19.96
2022-12-06T23:54:08.386Z,19.96
2022-12-06T23:56:38.621Z,19.97
2022-12-06T23:59:08.442Z,19.97
